Time;durP1;ratioP1;P1;durP2;ratioP2;P2;SDS_P1;SDS_P2;PMS_P1;PMS_P2;Temp;Humidity;BMP_temperature;BMP_pressure;BME280_temperature;BME280_humidity;BME280_pressure;Samples;Min_cycle;Max_cycle;Signal;HPM_P1;HPM_P2
2024/03/19 00:02:16;;;;;;;0.50;0.50;;;10.10;99.90;;;;;;4957638;28;20508;-84
2024/03/19 00:04:43;;;;;;;0.50;0.40;;;10.20;99.90;;;;;;4957274;28;20474;-84
2024/03/19 00:07:10;;;;;;;0.50;0.40;;;10.20;99.90;;;;;;4957504;28;20470;-84
2024/03/19 00:09:37;;;;;;;0.50;0.40;;;10.20;99.90;;;;;;4957419;28;20446;-84
2024/03/19 00:12:04;;;;;;;0.50;0.40;;;10.30;99.90;;;;;;4957340;28;20446;-84
2024/03/19 00:14:31;;;;;;;0.50;0.40;;;10.30;99.90;;;;;;4957084;28;20441;-84
2024/03/19 00:16:57;;;;;;;0.50;0.40;;;10.30;99.90;;;;;;4957435;28;20449;-85
2024/03/19 00:19:25;;;;;;;0.60;0.60;;;10.30;99.90;;;;;;4957263;28;20430;-84
2024/03/19 00:21:52;;;;;;;0.50;0.40;;;10.40;99.90;;;;;;4957418;28;20446;-84
2024/03/19 00:24:20;;;;;;;0.50;0.40;;;10.40;99.90;;;;;;4956773;28;20481;-84
2024/03/19 00:26:47;;;;;;;0.50;0.40;;;10.40;99.90;;;;;;4956931;28;20949;-85
2024/03/19 00:29:14;;;;;;;1.47;1.37;;;10.40;99.90;;;;;;4957163;28;20473;-84
2024/03/19 00:31:40;;;;;;;0.50;0.40;;;10.40;99.90;;;;;;4956784;28;20446;-84
2024/03/19 00:34:08;;;;;;;1.20;1.10;;;10.40;99.90;;;;;;4956800;28;20435;-85
2024/03/19 00:36:37;;;;;;;0.60;0.50;;;10.40;99.90;;;;;;4956743;28;20442;-84
2024/03/19 00:39:10;;;;;;;0.50;0.40;;;10.40;99.90;;;;;;4956291;28;21060;-84
2024/03/19 00:41:36;;;;;;;0.50;0.43;;;10.50;99.90;;;;;;4955945;28;20449;-84
2024/03/19 00:44:04;;;;;;;1.53;1.43;;;10.50;99.90;;;;;;4955706;28;20490;-84
2024/03/19 00:46:32;;;;;;;0.50;0.50;;;10.60;99.90;;;;;;4956260;28;20474;-85
2024/03/19 00:49:00;;;;;;;0.50;0.40;;;10.60;99.90;;;;;;4956043;28;20837;-84
2024/03/19 00:51:28;;;;;;;0.50;0.40;;;10.70;99.90;;;;;;4955618;28;20442;-84
2024/03/19 00:53:56;;;;;;;0.50;0.40;;;10.70;99.90;;;;;;4955189;28;20438;-84
2024/03/19 00:56:23;;;;;;;0.50;0.40;;;10.60;99.90;;;;;;4955146;28;20449;-84
2024/03/19 00:58:50;;;;;;;0.50;0.40;;;10.60;99.90;;;;;;4955407;28;20826;-85
2024/03/19 01:01:16;;;;;;;0.90;0.60;;;10.60;99.90;;;;;;4955325;28;20446;-86
2024/03/19 01:03:43;;;;;;;0.50;0.40;;;10.70;99.90;;;;;;4955137;28;20441;-85
2024/03/19 01:06:10;;;;;;;0.50;0.40;;;10.70;99.90;;;;;;4960623;28;20484;-86
2024/03/19 01:08:37;;;;;;;0.50;0.40;;;10.60;99.90;;;;;;4963096;28;20469;-85
2024/03/19 01:11:05;;;;;;;0.50;0.40;;;10.70;99.90;;;;;;4961543;28;20445;-86
2024/03/19 01:13:32;;;;;;;0.60;0.60;;;10.70;99.90;;;;;;4960784;28;20467;-85
2024/03/19 01:15:59;;;;;;;0.50;0.40;;;10.60;99.90;;;;;;4961720;28;20810;-86
2024/03/19 01:18:25;;;;;;;0.50;0.40;;;10.60;99.90;;;;;;4962136;28;20473;-86
2024/03/19 01:20:53;;;;;;;0.50;0.40;;;10.60;99.90;;;;;;4961996;28;20984;-86
2024/03/19 01:23:20;;;;;;;0.50;0.40;;;10.70;99.90;;;;;;4961203;28;20453;-86
2024/03/19 01:25:47;;;;;;;0.50;0.40;;;10.60;99.90;;;;;;4961381;28;20514;-86
2024/03/19 01:28:15;;;;;;;0.50;0.40;;;10.60;99.90;;;;;;4961405;28;20466;-85
2024/03/19 01:30:40;;;;;;;0.50;0.40;;;10.70;99.90;;;;;;4960923;28;20446;-86
2024/03/19 01:33:07;;;;;;;0.50;0.40;;;10.60;99.90;;;;;;4961147;28;20445;-85
2024/03/19 01:35:34;;;;;;;0.50;0.40;;;10.70;99.90;;;;;;4962140;28;20438;-85
2024/03/19 01:38:01;;;;;;;0.97;0.87;;;10.70;99.90;;;;;;4961187;28;20462;-85
2024/03/19 01:40:27;;;;;;;1.07;1.07;;;10.70;99.90;;;;;;4961249;28;20438;-85
2024/03/19 01:42:54;;;;;;;0.80;0.80;;;10.50;99.90;;;;;;4959441;29;20814;-85
2024/03/19 01:45:23;;;;;;;0.50;0.40;;;10.40;99.90;;;;;;4960933;29;20485;-85
2024/03/19 01:47:51;;;;;;;0.50;0.50;;;10.30;99.90;;;;;;4961316;28;20462;-85
2024/03/19 01:50:19;;;;;;;1.63;1.53;;;10.30;99.90;;;;;;4961363;28;20446;-86
2024/03/19 01:52:49;;;;;;;0.50;0.40;;;10.30;99.90;;;;;;4960860;28;20443;-85
2024/03/19 01:55:17;;;;;;;0.50;0.40;;;10.40;99.90;;;;;;4961684;28;20505;-86
2024/03/19 01:57:44;;;;;;;2.77;2.00;;;10.40;99.90;;;;;;4960589;28;20466;-86
2024/03/19 02:00:13;;;;;;;1.17;1.10;;;10.50;99.90;;;;;;4961032;28;20965;-86
2024/03/19 02:02:41;;;;;;;1.30;1.17;;;10.60;99.90;;;;;;4961812;28;20453;-85
2024/03/19 02:05:10;;;;;;;2.07;1.97;;;10.60;99.90;;;;;;4960700;28;20474;-85
2024/03/19 02:07:37;;;;;;;0.60;0.60;;;10.70;99.90;;;;;;4961293;28;20524;-85
2024/03/19 02:10:06;;;;;;;0.50;0.40;;;10.70;99.90;;;;;;4970875;28;20449;-84
2024/03/19 02:12:33;;;;;;;1.03;1.03;;;10.70;99.90;;;;;;4979073;28;20437;-84
2024/03/19 02:15:00;;;;;;;0.50;0.40;;;10.50;99.90;;;;;;4979603;28;20434;-84
2024/03/19 02:17:28;;;;;;;1.37;1.23;;;10.40;99.90;;;;;;4979457;28;20457;-83
2024/03/19 02:19:57;;;;;;;0.50;0.40;;;10.40;99.90;;;;;;4971038;28;20969;-83
2024/03/19 02:22:28;;;;;;;0.70;0.70;;;10.30;99.90;;;;;;4959500;28;20450;-83
2024/03/19 02:24:54;;;;;;;2.80;2.70;;;10.20;99.90;;;;;;4960457;28;20509;-83
2024/03/19 02:27:21;;;;;;;0.50;0.40;;;10.10;99.90;;;;;;4959988;28;20468;-83
2024/03/19 02:29:48;;;;;;;1.37;1.30;;;10.00;99.90;;;;;;4960267;28;20445;-83
2024/03/19 02:32:15;;;;;;;0.67;0.67;;;10.00;99.90;;;;;;4960013;28;20972;-84
2024/03/19 02:34:41;;;;;;;0.70;0.70;;;9.90;99.90;;;;;;4959577;28;20441;-83
2024/03/19 02:37:08;;;;;;;3.60;0.73;;;9.90;99.90;;;;;;4959329;28;20465;-83
2024/03/19 02:39:37;;;;;;;1.20;1.20;;;9.90;99.90;;;;;;4958947;28;20442;-83
2024/03/19 02:42:04;;;;;;;0.93;0.93;;;10.00;99.90;;;;;;4959314;28;20500;-83
2024/03/19 02:44:31;;;;;;;0.50;0.50;;;10.00;99.90;;;;;;4958776;28;20444;-83
2024/03/19 02:46:57;;;;;;;1.07;1.07;;;10.00;99.90;;;;;;4958808;28;20497;-83
2024/03/19 02:49:24;;;;;;;5.80;1.50;;;10.10;99.90;;;;;;4958461;28;20442;-83
2024/03/19 02:51:51;;;;;;;2.20;2.10;;;10.10;99.90;;;;;;4958249;28;20446;-83
2024/03/19 02:54:18;;;;;;;2.20;2.00;;;10.10;99.90;;;;;;4958475;28;20468;-83
2024/03/19 02:56:46;;;;;;;1.27;0.70;;;10.10;99.90;;;;;;4958027;28;20787;-83
2024/03/19 02:59:13;;;;;;;0.90;0.63;;;10.10;99.90;;;;;;4957902;28;20457;-83
2024/03/19 03:01:39;;;;;;;1.93;1.83;;;10.20;99.90;;;;;;4957956;28;20446;-83
2024/03/19 03:04:06;;;;;;;0.50;0.40;;;10.10;99.90;;;;;;4957897;28;20438;-84
2024/03/19 03:06:34;;;;;;;0.50;0.40;;;10.10;99.90;;;;;;4957739;28;20532;-83
2024/03/19 03:09:01;;;;;;;0.50;0.43;;;10.20;99.90;;;;;;4957612;28;20492;-83
2024/03/19 03:11:28;;;;;;;0.50;0.40;;;10.20;99.90;;;;;;4957605;28;20442;-84
2024/03/19 03:13:56;;;;;;;1.50;1.33;;;10.20;99.90;;;;;;4957141;28;20445;-83
2024/03/19 03:16:23;;;;;;;0.60;0.60;;;10.20;99.90;;;;;;4956761;28;20814;-83
2024/03/19 03:18:50;;;;;;;10.80;2.80;;;10.10;99.90;;;;;;4956870;28;20840;-83
2024/03/19 03:21:17;;;;;;;0.60;0.60;;;10.10;99.90;;;;;;4957017;28;20438;-84
2024/03/19 03:23:44;;;;;;;0.50;0.40;;;10.20;99.90;;;;;;4956585;28;20456;-84
2024/03/19 03:26:11;;;;;;;0.50;0.40;;;10.20;99.90;;;;;;4956730;28;21015;-84
2024/03/19 03:28:38;;;;;;;7.80;1.53;;;10.20;99.90;;;;;;4956747;28;20493;-84
2024/03/19 03:31:06;;;;;;;2.77;2.67;;;10.20;99.90;;;;;;4959669;28;20528;-83
2024/03/19 03:33:33;;;;;;;1.60;1.50;;;10.20;99.90;;;;;;4958647;28;20442;-84
2024/03/19 03:35:59;;;;;;;1.37;1.27;;;10.20;99.90;;;;;;4957602;29;20465;-83
2024/03/19 03:38:26;;;;;;;2.13;1.80;;;10.20;99.90;;;;;;4958455;28;20458;-83
2024/03/19 03:40:54;;;;;;;2.97;2.73;;;10.20;99.90;;;;;;4958701;28;20438;-84
2024/03/19 03:43:20;;;;;;;3.17;2.73;;;10.20;99.90;;;;;;4957996;28;20922;-83
2024/03/19 03:45:47;;;;;;;2.80;2.57;;;10.20;99.90;;;;;;4958635;28;20480;-85
2024/03/19 03:48:17;;;;;;;1.90;1.50;;;10.20;99.90;;;;;;4956934;28;20969;-85
2024/03/19 03:50:44;;;;;;;6.77;3.10;;;10.20;99.90;;;;;;4976854;28;20445;-85
2024/03/19 03:53:11;;;;;;;1.47;0.83;;;10.20;99.90;;;;;;4976402;28;20441;-86
2024/03/19 03:55:38;;;;;;;1.33;1.23;;;10.10;99.90;;;;;;4977563;28;20437;-85
2024/03/19 03:58:05;;;;;;;12.90;3.70;;;10.10;99.90;;;;;;4976879;28;20468;-85
2024/03/19 04:00:33;;;;;;;1.93;1.80;;;10.10;99.90;;;;;;4977131;28;20449;-85
2024/03/19 04:02:59;;;;;;;2.07;1.97;;;10.00;99.90;;;;;;4975668;28;20446;-85
2024/03/19 04:05:29;;;;;;;0.90;0.90;;;10.00;99.90;;;;;;4976804;28;20499;-85
2024/03/19 04:07:55;;;;;;;10.97;3.50;;;9.90;99.90;;;;;;4976648;28;20992;-84
2024/03/19 04:10:22;;;;;;;0.70;0.70;;;9.80;99.90;;;;;;4976771;28;20445;-85
2024/03/19 04:12:49;;;;;;;5.00;4.07;;;9.80;99.90;;;;;;4977399;28;20442;-85
2024/03/19 04:15:16;;;;;;;1.50;1.40;;;9.80;99.90;;;;;;4977120;28;20529;-85
2024/03/19 04:17:43;;;;;;;3.00;2.80;;;9.70;99.90;;;;;;4976827;28;20462;-85
2024/03/19 04:20:11;;;;;;;1.57;1.47;;;9.70;99.90;;;;;;4977224;28;20433;-85
2024/03/19 04:22:40;;;;;;;0.90;0.90;;;9.70;99.90;;;;;;4976952;28;20821;-85
2024/03/19 04:25:07;;;;;;;2.03;1.83;;;9.60;99.90;;;;;;4975687;28;20445;-85
2024/03/19 04:27:34;;;;;;;1.57;1.27;;;9.60;99.90;;;;;;4977446;28;20552;-84
2024/03/19 04:30:01;;;;;;;2.00;1.90;;;9.60;99.90;;;;;;4976867;28;20448;-84
2024/03/19 04:32:28;;;;;;;1.10;1.10;;;9.60;99.90;;;;;;4978852;28;20452;-85
2024/03/19 04:34:56;;;;;;;4.87;1.70;;;9.60;99.90;;;;;;4979493;28;20445;-85
2024/03/19 04:37:23;;;;;;;1.07;1.07;;;9.60;99.90;;;;;;4980283;28;20468;-85
2024/03/19 04:39:51;;;;;;;5.00;3.40;;;9.60;99.90;;;;;;4979255;28;20437;-84
2024/03/19 04:42:19;;;;;;;1.50;0.90;;;9.60;99.90;;;;;;4979294;28;20947;-84
2024/03/19 04:44:46;;;;;;;1.80;1.47;;;9.50;99.90;;;;;;4979528;28;20441;-85
2024/03/19 04:47:16;;;;;;;4.97;3.23;;;9.50;99.90;;;;;;4977560;28;20513;-84
2024/03/19 04:49:43;;;;;;;11.73;1.93;;;9.50;99.90;;;;;;4975644;28;20437;-84
2024/03/19 04:52:10;;;;;;;5.20;1.90;;;9.40;99.90;;;;;;4975933;28;20444;-85
2024/03/19 04:54:37;;;;;;;1.57;1.47;;;9.40;99.90;;;;;;4974759;28;20437;-84
2024/03/19 04:57:06;;;;;;;0.50;0.50;;;9.40;99.90;;;;;;4976207;28;20437;-84
2024/03/19 04:59:32;;;;;;;2.83;2.63;;;9.40;99.90;;;;;;4975619;28;20445;-84
2024/03/19 05:01:59;;;;;;;6.03;2.77;;;9.40;99.90;;;;;;4976103;28;20439;-85
2024/03/19 05:04:26;;;;;;;2.17;1.87;;;9.30;99.90;;;;;;4975587;28;20437;-84
2024/03/19 05:06:54;;;;;;;0.97;0.87;;;9.30;99.90;;;;;;4975559;28;20864;-84
2024/03/19 05:09:21;;;;;;;3.33;3.10;;;9.30;99.90;;;;;;4975323;28;20453;-84
2024/03/19 05:11:48;;;;;;;0.73;0.73;;;9.20;99.90;;;;;;4975386;28;20445;-84
2024/03/19 05:14:16;;;;;;;8.03;4.17;;;9.30;99.90;;;;;;4974659;28;20442;-84
2024/03/19 05:16:43;;;;;;;1.00;0.90;;;9.20;99.90;;;;;;4974917;28;20429;-84
2024/03/19 05:19:10;;;;;;;17.00;4.13;;;9.20;99.90;;;;;;4974954;28;20461;-85
2024/03/19 05:21:37;;;;;;;0.50;0.40;;;9.30;99.90;;;;;;4974928;28;20441;-84
2024/03/19 05:24:04;;;;;;;2.45;1.65;;;9.30;99.90;;;;;;4974697;28;20525;-84
2024/03/19 05:26:31;;;;;;;1.40;1.30;;;9.30;99.90;;;;;;4973665;28;20214;-85
2024/03/19 05:28:58;;;;;;;0.60;0.60;;;9.40;99.90;;;;;;4974888;28;20976;-85
2024/03/19 05:31:27;;;;;;;0.70;0.70;;;9.40;99.90;;;;;;4974866;28;20441;-84
2024/03/19 05:33:55;;;;;;;0.67;0.67;;;9.40;99.90;;;;;;4973744;28;20444;-83
2024/03/19 05:36:21;;;;;;;2.20;1.03;;;9.40;99.90;;;;;;4974381;28;20439;-83
2024/03/19 05:38:49;;;;;;;4.90;3.75;;;9.40;99.90;;;;;;4973981;28;20467;-85
2024/03/19 05:41:16;;;;;;;3.30;2.97;;;9.40;99.90;;;;;;4973908;28;20197;-84
2024/03/19 05:43:43;;;;;;;2.83;2.63;;;9.40;99.90;;;;;;4974369;28;20441;-84
2024/03/19 05:46:10;;;;;;;2.47;2.30;;;9.50;99.90;;;;;;4973057;28;20476;-84
2024/03/19 05:48:38;;;;;;;2.33;2.23;;;9.50;99.90;;;;;;4959634;28;20524;-85
2024/03/19 05:51:06;;;;;;;2.80;1.60;;;9.50;99.90;;;;;;4962342;28;20821;-84
2024/03/19 05:53:32;;;;;;;4.28;3.92;;;9.50;99.90;;;;;;4962377;28;20449;-85
2024/03/19 05:56:01;;;;;;;1.77;1.67;;;9.50;99.90;;;;;;4959476;29;20209;-84
2024/03/19 05:58:28;;;;;;;7.13;1.80;;;9.40;99.90;;;;;;4960105;28;20470;-85
2024/03/19 06:00:55;;;;;;;3.75;3.45;;;9.40;99.90;;;;;;4961863;29;20501;-86
2024/03/19 06:03:23;;;;;;;2.10;1.00;;;9.40;99.90;;;;;;4960185;28;20229;-84
2024/03/19 06:05:53;;;;;;;2.30;2.10;;;9.40;99.90;;;;;;4959486;28;20480;-85
2024/03/19 06:08:19;;;;;;;6.33;2.13;;;9.40;99.90;;;;;;4959888;28;20837;-84
2024/03/19 06:10:46;;;;;;;4.13;2.78;;;9.50;99.90;;;;;;4961717;28;20438;-84
2024/03/19 06:13:13;;;;;;;4.77;3.80;;;9.50;99.90;;;;;;4962311;28;20253;-83
2024/03/19 06:15:40;;;;;;;2.60;2.40;;;9.50;99.90;;;;;;4961317;28;20442;-84
2024/03/19 06:18:07;;;;;;;1.77;1.73;;;9.60;99.90;;;;;;4961183;28;20454;-84
2024/03/19 06:20:35;;;;;;;2.20;1.77;;;9.60;99.90;;;;;;4944186;29;20206;-85
2024/03/19 06:23:04;;;;;;;0.50;0.50;;;9.70;99.90;;;;;;4963738;28;20956;-85
2024/03/19 06:25:30;;;;;;;1.40;1.30;;;9.70;99.90;;;;;;4962669;29;20202;-85
2024/03/19 06:27:57;;;;;;;1.90;1.80;;;9.70;99.90;;;;;;4962871;28;20609;-84
2024/03/19 06:30:25;;;;;;;3.23;2.00;;;9.80;99.90;;;;;;4963321;28;20450;-85
2024/03/19 06:32:51;;;;;;;7.63;1.93;;;9.80;99.90;;;;;;4960952;28;20477;-84
2024/03/19 06:35:18;;;;;;;4.27;3.87;;;9.80;99.90;;;;;;4964843;28;20446;-85
2024/03/19 06:37:47;;;;;;;3.00;1.87;;;9.80;99.90;;;;;;4962753;29;20462;-84
2024/03/19 06:40:22;;;;;;;3.38;3.08;;;9.80;99.90;;;;;;4963577;28;20470;-85
2024/03/19 06:42:49;;;;;;;4.83;3.40;;;9.80;99.90;;;;;;4965590;28;20198;-86
2024/03/19 06:45:18;;;;;;;2.10;1.60;;;9.90;99.90;;;;;;4966509;28;20528;-84
2024/03/19 06:47:47;;;;;;;1.43;1.20;;;10.00;99.90;;;;;;4966453;28;20505;-84
2024/03/19 06:50:14;;;;;;;0.93;0.93;;;10.00;99.90;;;;;;4963721;28;20472;-85
2024/03/19 06:52:43;;;;;;;15.33;2.40;;;10.00;99.90;;;;;;4978489;28;20467;-85
2024/03/19 06:55:11;;;;;;;2.17;1.50;;;10.10;99.90;;;;;;4959416;28;20502;-84
2024/03/19 06:57:40;;;;;;;1.00;1.00;;;10.10;99.90;;;;;;4962823;28;20457;-87
2024/03/19 07:00:13;;;;;;;4.07;3.77;;;10.20;99.90;;;;;;4978454;28;20798;-84
2024/03/19 07:02:43;;;;;;;4.67;3.63;;;10.20;99.90;;;;;;4962257;29;20441;-84
2024/03/19 07:05:12;;;;;;;1.73;1.60;;;10.30;99.90;;;;;;4983865;28;20452;-86
2024/03/19 07:07:39;;;;;;;9.23;3.50;;;10.40;99.90;;;;;;4983543;28;20481;-85
2024/03/19 07:10:07;;;;;;;2.30;1.53;;;10.50;99.90;;;;;;4984670;28;20453;-85
2024/03/19 07:12:35;;;;;;;1.67;1.30;;;10.50;99.90;;;;;;4973276;28;20450;-86
2024/03/19 07:15:10;;;;;;;1.30;1.13;;;10.50;99.90;;;;;;4970284;29;20457;-86
2024/03/19 07:17:37;;;;;;;5.83;3.40;;;10.60;99.90;;;;;;4968101;28;20561;-86
2024/03/19 07:20:09;;;;;;;9.90;3.93;;;10.70;99.90;;;;;;4962071;28;20442;-85
2024/03/19 07:22:38;;;;;;;1.23;1.13;;;10.70;99.90;;;;;;4974438;28;20460;-85
2024/03/19 07:25:10;;;;;;;1.67;1.57;;;10.80;99.90;;;;;;4980529;28;20468;-86
2024/03/19 07:27:41;;;;;;;1.63;0.93;;;10.90;99.90;;;;;;4979287;28;20485;-85
2024/03/19 07:30:11;;;;;;;15.67;4.13;;;10.90;99.90;;;;;;4977891;28;20520;-86
2024/03/19 07:32:38;;;;;;;1.73;1.47;;;11.10;99.90;;;;;;4956294;28;20932;-85
2024/03/19 07:35:07;;;;;;;3.17;1.97;;;11.40;99.90;;;;;;4979565;28;20450;-85
2024/03/19 07:37:35;;;;;;;0.50;0.40;;;11.50;99.90;;;;;;4965518;28;20458;-85
2024/03/19 07:40:03;;;;;;;22.27;3.07;;;11.70;99.90;;;;;;4971487;28;20473;-85
2024/03/19 07:42:30;;;;;;;0.90;0.77;;;12.10;99.90;;;;;;4983573;28;20441;-86
2024/03/19 07:45:04;;;;;;;2.20;2.10;;;12.50;99.90;;;;;;4971365;28;20434;-86
2024/03/19 07:47:32;;;;;;;0.50;0.50;;;12.60;99.90;;;;;;4975022;28;20481;-85
2024/03/19 07:49:59;;;;;;;2.20;1.57;;;12.60;99.90;;;;;;4982815;28;20468;-85
2024/03/19 07:52:27;;;;;;;1.13;0.77;;;12.70;99.90;;;;;;4981892;28;20438;-85
2024/03/19 07:54:56;;;;;;;0.83;0.83;;;12.70;99.90;;;;;;4977288;28;20934;-86
2024/03/19 07:57:25;;;;;;;8.53;3.37;;;12.50;99.90;;;;;;4970376;28;20699;-86
2024/03/19 07:59:53;;;;;;;1.43;1.33;;;12.40;99.90;;;;;;4963407;28;20453;-84
2024/03/19 08:02:20;;;;;;;0.50;0.40;;;12.40;99.90;;;;;;4963917;28;20441;-85
2024/03/19 08:04:50;;;;;;;3.40;2.40;;;12.40;99.90;;;;;;4963940;28;20536;-85
2024/03/19 08:07:17;;;;;;;2.80;0.60;;;12.30;99.90;;;;;;4963112;28;20597;-85
2024/03/19 08:09:45;;;;;;;1.00;1.00;;;12.60;99.90;;;;;;4963736;28;20799;-87
2024/03/19 08:12:12;;;;;;;3.47;2.43;;;13.00;99.90;;;;;;4961692;28;20546;-87
2024/03/19 08:14:41;;;;;;;1.67;0.70;;;13.50;99.90;;;;;;4963990;28;20814;-87
2024/03/19 08:17:08;;;;;;;0.93;0.93;;;14.10;99.90;;;;;;4966103;28;20513;-87
2024/03/19 08:19:35;;;;;;;0.63;0.63;;;14.30;99.90;;;;;;4965789;28;20450;-87
2024/03/19 08:22:06;;;;;;;0.90;0.70;;;14.50;99.90;;;;;;4965515;28;20514;-87
2024/03/19 08:24:32;;;;;;;0.70;0.60;;;14.20;99.90;;;;;;4965200;28;20466;-87
2024/03/19 08:26:59;;;;;;;0.50;0.40;;;14.20;99.90;;;;;;4964714;28;20511;-86
2024/03/19 08:29:26;;;;;;;0.50;0.40;;;14.00;99.90;;;;;;4964197;28;20446;-85
2024/03/19 08:31:53;;;;;;;0.50;0.40;;;13.90;99.90;;;;;;4963271;28;20446;-87
2024/03/19 08:34:19;;;;;;;0.90;0.90;;;13.80;99.90;;;;;;4973284;28;20434;-86
2024/03/19 08:36:46;;;;;;;0.50;0.40;;;13.50;99.90;;;;;;4975111;28;20461;-86
2024/03/19 08:39:14;;;;;;;0.50;0.50;;;13.50;99.90;;;;;;4975021;28;20459;-87
2024/03/19 08:41:41;;;;;;;0.50;0.40;;;13.30;99.90;;;;;;4966505;28;20442;-87
2024/03/19 08:44:09;;;;;;;0.50;0.40;;;13.30;99.90;;;;;;4969212;28;20465;-85
2024/03/19 08:46:35;;;;;;;1.00;1.00;;;13.30;99.90;;;;;;4972120;28;20471;-86
2024/03/19 08:49:02;;;;;;;6.20;0.90;;;13.40;99.90;;;;;;4971992;28;20469;-88
2024/03/19 08:51:30;;;;;;;2.40;2.30;;;13.50;99.90;;;;;;4972862;28;20437;-85
2024/03/19 08:53:59;;;;;;;0.50;0.40;;;13.50;99.90;;;;;;4966608;28;20465;-86
2024/03/19 08:56:27;;;;;;;0.70;0.70;;;13.60;99.90;;;;;;4962790;28;20930;-87
2024/03/19 08:58:57;;;;;;;0.70;0.70;;;13.50;99.90;;;;;;4963651;28;20462;-86
2024/03/19 09:01:25;;;;;;;3.03;2.80;;;13.70;99.90;;;;;;4964342;28;21008;-85
2024/03/19 09:03:52;;;;;;;0.50;0.40;;;14.00;99.90;;;;;;4963687;28;20438;-85
2024/03/19 09:06:19;;;;;;;1.53;1.43;;;14.30;99.90;;;;;;4963596;28;20509;-86
2024/03/19 09:08:48;;;;;;;2.13;1.33;;;14.40;99.90;;;;;;4962774;28;20922;-86
2024/03/19 09:11:15;;;;;;;0.70;0.70;;;14.60;99.90;;;;;;4963688;28;20882;-86
2024/03/19 09:13:43;;;;;;;4.00;1.50;;;14.80;99.90;;;;;;4962450;28;20442;-86
2024/03/19 09:16:11;;;;;;;0.60;0.60;;;14.70;99.90;;;;;;4962229;28;20446;-85
2024/03/19 09:18:39;;;;;;;2.17;2.03;;;14.50;99.90;;;;;;4961086;28;20458;-86
2024/03/19 09:21:07;;;;;;;2.03;1.90;;;14.70;99.90;;;;;;4961236;28;20443;-85
2024/03/19 09:23:34;;;;;;;0.77;0.77;;;14.60;99.90;;;;;;4961293;28;20489;-85
2024/03/19 09:26:01;;;;;;;1.20;1.10;;;14.80;99.90;;;;;;4957605;28;20817;-86
2024/03/19 09:28:31;;;;;;;0.60;0.50;;;15.00;99.90;;;;;;4958180;28;20482;-85
2024/03/19 09:30:59;;;;;;;7.03;1.70;;;15.20;99.90;;;;;;4957875;28;20446;-86
2024/03/19 09:33:26;;;;;;;1.40;1.30;;;15.30;99.90;;;;;;4959966;28;20501;-86
2024/03/19 09:35:53;;;;;;;0.50;0.40;;;15.50;99.90;;;;;;4960411;28;20806;-86
2024/03/19 09:38:21;;;;;;;1.13;1.13;;;15.90;99.90;;;;;;4958674;28;20489;-85
2024/03/19 09:40:55;;;;;;;0.50;0.40;;;15.80;99.90;;;;;;4960421;28;20842;-84
2024/03/19 09:43:23;;;;;;;0.70;0.50;;;15.70;99.90;;;;;;4959625;28;20436;-85
2024/03/19 09:45:51;;;;;;;0.93;0.70;;;16.10;99.90;;;;;;4958351;28;20448;-84
2024/03/19 09:48:20;;;;;;;1.63;1.23;;;16.10;99.90;;;;;;4958692;28;20540;-78
2024/03/19 09:50:51;;;;;;;1.13;1.13;;;16.10;99.90;;;;;;4960951;28;20499;-84
2024/03/19 09:53:19;;;;;;;0.50;0.40;;;16.10;99.90;;;;;;4961476;28;20943;-84
2024/03/19 09:55:49;;;;;;;3.13;1.50;;;16.30;99.90;;;;;;4963313;28;20475;-84
2024/03/19 09:58:19;;;;;;;0.60;0.60;;;16.70;99.90;;;;;;4961880;28;20467;-84
2024/03/19 10:00:46;;;;;;;1.57;0.87;;;16.90;99.90;;;;;;4961001;28;20974;-81
2024/03/19 10:03:14;;;;;;;0.70;0.50;;;16.50;99.90;;;;;;4964966;28;20444;-84
2024/03/19 10:05:43;;;;;;;0.80;0.80;;;16.30;99.90;;;;;;4963564;28;20515;-83
2024/03/19 10:08:13;;;;;;;0.73;0.70;;;16.70;99.90;;;;;;4962034;28;21041;-84
2024/03/19 10:10:40;;;;;;;0.50;0.40;;;16.70;99.90;;;;;;4963192;28;20437;-84
2024/03/19 10:13:12;;;;;;;0.50;0.40;;;16.80;99.90;;;;;;4961977;28;20939;-84
2024/03/19 10:15:40;;;;;;;0.50;0.30;;;17.30;99.90;;;;;;4963474;28;20597;-84
2024/03/19 10:18:07;;;;;;;2.00;1.23;;;17.60;99.90;;;;;;4961920;28;20469;-82
2024/03/19 10:20:39;;;;;;;2.30;0.83;;;17.40;99.90;;;;;;4959103;28;20459;-85
2024/03/19 10:23:07;;;;;;;1.43;0.93;;;17.40;99.90;;;;;;4959076;28;20471;-83
2024/03/19 10:25:36;;;;;;;0.50;0.40;;;17.40;99.90;;;;;;4960198;28;20439;-84
2024/03/19 10:28:06;;;;;;;1.27;0.77;;;17.70;99.90;;;;;;4956762;28;20854;-83
2024/03/19 10:30:33;;;;;;;0.50;0.30;;;17.90;99.90;;;;;;4956390;28;20444;-86
2024/03/19 10:33:07;;;;;;;0.60;0.50;;;18.40;99.90;;;;;;4959068;28;20449;-85
2024/03/19 10:35:34;;;;;;;0.50;0.50;;;18.70;99.90;;;;;;4960388;28;20480;-85
2024/03/19 10:38:04;;;;;;;1.33;1.10;;;19.20;99.90;;;;;;4962084;28;20825;-86
2024/03/19 10:40:33;;;;;;;0.73;0.60;;;19.30;99.90;;;;;;4971916;28;20492;-84
2024/03/19 10:43:01;;;;;;;0.50;0.40;;;19.50;99.90;;;;;;4967876;28;20449;-86
2024/03/19 10:45:29;;;;;;;0.50;0.40;;;19.20;99.90;;;;;;4966845;28;20456;-86
2024/03/19 10:47:56;;;;;;;0.80;0.60;;;19.40;99.90;;;;;;4968900;28;20481;-85
2024/03/19 10:50:24;;;;;;;0.50;0.40;;;18.90;99.90;;;;;;4966440;29;20544;-85
2024/03/19 10:52:56;;;;;;;0.50;0.40;;;18.70;99.90;;;;;;4967314;28;20469;-85
2024/03/19 10:55:24;;;;;;;2.73;0.67;;;18.30;99.90;;;;;;4966400;28;20937;-85
2024/03/19 10:57:53;;;;;;;1.80;1.43;;;18.30;99.90;;;;;;4968374;28;20481;-86
2024/03/19 11:00:25;;;;;;;1.80;0.97;;;17.80;99.90;;;;;;4965107;28;20944;-84
2024/03/19 11:02:55;;;;;;;0.50;0.40;;;17.50;99.90;;;;;;4965310;28;20439;-85
2024/03/19 11:05:24;;;;;;;0.50;0.40;;;17.60;99.90;;;;;;4965690;28;20466;-85
2024/03/19 11:07:54;;;;;;;0.50;0.40;;;18.40;99.90;;;;;;4964732;28;20510;-84
2024/03/19 11:10:28;;;;;;;0.80;0.60;;;18.60;99.90;;;;;;4965114;28;20467;-85
2024/03/19 11:13:04;;;;;;;2.30;0.80;;;18.90;99.90;;;;;;4964834;28;20964;-84
2024/03/19 11:15:31;;;;;;;0.50;0.40;;;19.80;99.90;;;;;;4963927;28;20433;-86
2024/03/19 11:17:58;;;;;;;0.50;0.40;;;19.90;99.90;;;;;;4963084;28;20458;-84
2024/03/19 11:20:32;;;;;;;1.83;1.23;;;19.70;99.90;;;;;;4963307;28;20442;-84
2024/03/19 11:23:03;;;;;;;1.13;0.60;;;19.30;99.90;;;;;;4961907;28;20503;-83
2024/03/19 11:25:29;;;;;;;0.50;0.30;;;18.40;99.90;;;;;;4960642;28;20440;-84
2024/03/19 11:28:01;;;;;;;4.50;1.20;;;18.40;99.90;;;;;;4961543;28;20489;-84
2024/03/19 11:30:30;;;;;;;0.60;0.40;;;18.20;99.90;;;;;;4960849;28;20440;-84
2024/03/19 11:32:59;;;;;;;0.70;0.60;;;18.40;99.90;;;;;;4962222;28;20441;-83
2024/03/19 11:35:26;;;;;;;0.50;0.40;;;18.80;99.90;;;;;;4963544;28;20512;-84
2024/03/19 11:37:53;;;;;;;0.50;0.50;;;19.00;99.90;;;;;;4963977;28;20457;-83
2024/03/19 11:40:24;;;;;;;0.50;0.40;;;19.40;99.90;;;;;;4963251;28;20452;-85
2024/03/19 11:42:52;;;;;;;0.50;0.40;;;20.40;99.90;;;;;;4963517;28;20544;-86
2024/03/19 11:45:23;;;;;;;0.50;0.40;;;20.90;99.90;;;;;;4962340;28;20442;-86
2024/03/19 11:47:50;;;;;;;0.50;0.50;;;22.00;99.90;;;;;;4963639;28;20489;-86
2024/03/19 11:50:21;;;;;;;0.50;0.30;;;22.90;98.30;;;;;;4959753;29;20437;-83
2024/03/19 11:52:51;;;;;;;0.50;0.33;;;21.80;96.90;;;;;;4964771;28;20554;-86
2024/03/19 11:55:21;;;;;;;0.50;0.40;;;21.50;97.00;;;;;;4965822;28;20440;-84
2024/03/19 11:57:51;;;;;;;0.50;0.40;;;21.90;95.80;;;;;;4965136;28;20491;-81
2024/03/19 12:00:19;;;;;;;0.50;0.30;;;22.20;94.50;;;;;;4961056;28;20441;-85
2024/03/19 12:02:49;;;;;;;0.50;0.40;;;22.70;93.00;;;;;;4961483;28;20456;-83
2024/03/19 12:05:19;;;;;;;0.83;0.83;;;23.10;93.00;;;;;;4962278;28;20552;-85
2024/03/19 12:07:50;;;;;;;0.50;0.30;;;22.50;90.80;;;;;;4960443;28;20503;-85
2024/03/19 12:10:22;;;;;;;0.50;0.40;;;21.80;91.60;;;;;;4959749;28;20553;-85
2024/03/19 12:12:50;;;;;;;0.50;0.30;;;21.40;91.40;;;;;;4959827;28;20543;-84
2024/03/19 12:15:18;;;;;;;0.60;0.50;;;21.50;91.30;;;;;;4960797;28;20445;-84
2024/03/19 12:17:47;;;;;;;0.50;0.40;;;22.10;91.00;;;;;;4960170;28;20457;-84
2024/03/19 12:20:15;;;;;;;1.43;0.70;;;22.70;91.20;;;;;;4959174;28;20449;-86
2024/03/19 12:22:42;;;;;;;0.70;0.70;;;22.90;87.60;;;;;;4961087;28;20471;-85
2024/03/19 12:25:10;;;;;;;0.60;0.40;;;22.80;91.40;;;;;;4966864;28;20948;-85
2024/03/19 12:27:39;;;;;;;0.50;0.40;;;22.50;90.00;;;;;;4967591;28;20465;-85
2024/03/19 12:30:09;;;;;;;0.90;0.90;;;21.30;88.40;;;;;;4967271;28;20447;-86
2024/03/19 12:32:47;;;;;;;0.63;0.63;;;21.00;90.00;;;;;;4966059;28;20474;-86
2024/03/19 12:35:16;;;;;;;0.80;0.60;;;21.10;90.00;;;;;;4966241;28;20443;-86
2024/03/19 12:37:44;;;;;;;0.50;0.40;;;21.10;90.20;;;;;;4965867;28;20486;-84
2024/03/19 12:40:18;;;;;;;0.60;0.57;;;20.90;90.20;;;;;;4966086;28;20452;-85
2024/03/19 12:42:46;;;;;;;1.17;1.07;;;20.10;91.50;;;;;;4965700;28;20449;-85
2024/03/19 12:45:13;;;;;;;0.50;0.30;;;19.80;93.60;;;;;;4966625;28;20439;-85
2024/03/19 12:47:44;;;;;;;0.70;0.70;;;20.40;94.50;;;;;;4966953;28;20513;-85
2024/03/19 12:50:12;;;;;;;0.60;0.50;;;21.20;92.20;;;;;;4966838;28;20450;-85
2024/03/19 12:52:41;;;;;;;0.80;0.73;;;21.60;89.50;;;;;;4966073;28;20445;-84